Time;durP1;ratioP1;P1;durP2;ratioP2;P2;SDS_P1;SDS_P2;PMS_P1;PMS_P2;Temp;Humidity;BMP_temperature;BMP_pressure;BME280_temperature;BME280_humidity;BME280_pressure;Samples;Min_cycle;Max_cycle;Signal;HPM_P1;HPM_P2
2022/08/05 00:00:34;;;;;;;5.05;2.00;;;28.20;65.00;;;;;;5096670;28;20020;-69
2022/08/05 00:02:59;;;;;;;4.50;2.60;;;28.30;65.00;;;;;;5097122;28;20172;-69
2022/08/05 00:05:25;;;;;;;3.40;1.98;;;28.20;64.70;;;;;;5096831;28;20020;-69
2022/08/05 00:07:51;;;;;;;5.20;2.28;;;28.10;65.10;;;;;;5096045;28;20065;-69
2022/08/05 00:10:16;;;;;;;3.88;1.90;;;28.30;64.90;;;;;;5078153;28;20060;-69
2022/08/05 00:12:42;;;;;;;3.28;2.53;;;28.20;65.00;;;;;;5078226;28;20023;-69
2022/08/05 00:15:08;;;;;;;4.10;2.10;;;28.30;64.90;;;;;;5096152;28;20091;-68
2022/08/05 00:17:34;;;;;;;3.58;2.30;;;28.30;64.90;;;;;;5095736;28;20070;-69
2022/08/05 00:19:59;;;;;;;2.95;2.20;;;28.20;65.30;;;;;;5096126;28;20028;-68
2022/08/05 00:22:25;;;;;;;4.43;2.40;;;28.30;65.20;;;;;;5095773;28;20028;-68
2022/08/05 00:24:50;;;;;;;3.25;2.28;;;28.40;65.10;;;;;;5096094;28;20103;-68
2022/08/05 00:27:16;;;;;;;5.68;2.20;;;28.40;65.20;;;;;;5078810;28;20031;-68
2022/08/05 00:29:41;;;;;;;4.93;2.40;;;28.40;65.30;;;;;;5079541;28;20368;-69
2022/08/05 00:32:11;;;;;;;4.20;2.28;;;28.20;65.70;;;;;;5080225;28;20610;-69
2022/08/05 00:34:37;;;;;;;5.97;2.25;;;28.10;66.10;;;;;;5080676;28;20124;-69
2022/08/05 00:37:03;;;;;;;7.32;2.20;;;28.10;66.80;;;;;;5080071;28;20055;-69
2022/08/05 00:39:28;;;;;;;6.40;2.30;;;28.20;67.50;;;;;;5096209;28;20028;-69
2022/08/05 00:41:54;;;;;;;2.78;2.00;;;28.30;68.30;;;;;;5078914;28;20020;-69
2022/08/05 00:44:20;;;;;;;5.45;2.25;;;28.40;68.70;;;;;;5095962;28;20024;-69
2022/08/05 00:46:45;;;;;;;5.55;2.08;;;28.50;68.70;;;;;;5077998;28;20028;-69
2022/08/05 00:49:11;;;;;;;5.63;2.00;;;28.50;68.80;;;;;;5095733;28;20024;-69
2022/08/05 00:51:36;;;;;;;6.38;2.30;;;28.50;69.20;;;;;;5077525;28;20063;-69
2022/08/05 00:54:02;;;;;;;6.30;2.20;;;28.50;70.70;;;;;;5077548;28;20024;-69
2022/08/05 00:56:28;;;;;;;9.60;2.35;;;28.40;70.20;;;;;;5116323;22;20490;-71
2022/08/05 00:58:53;;;;;;;4.40;1.92;;;28.40;70.60;;;;;;5094732;28;20115;-71
2022/08/05 01:01:19;;;;;;;4.53;2.10;;;28.40;70.80;;;;;;5095450;28;20035;-71
2022/08/05 01:03:44;;;;;;;4.57;1.80;;;28.40;70.80;;;;;;5094472;28;20385;-71
2022/08/05 01:06:11;;;;;;;3.00;1.80;;;28.30;71.30;;;;;;5092896;28;20062;-71
2022/08/05 01:08:36;;;;;;;10.93;2.25;;;28.40;71.50;;;;;;5094312;28;20085;-71
2022/08/05 01:11:10;;;;;;;5.88;1.98;;;28.40;71.80;;;;;;5093633;28;20480;-71
2022/08/05 01:13:38;;;;;;;6.53;2.20;;;28.20;71.90;;;;;;5093134;28;20028;-71
2022/08/05 01:16:08;;;;;;;7.18;2.67;;;28.10;72.30;;;;;;5093037;28;20435;-71
2022/08/05 01:18:45;;;;;;;7.35;2.40;;;28.10;72.60;;;;;;5092789;28;20058;-70
2022/08/05 01:21:50;;;;;;;5.07;1.90;;;28.00;73.10;;;;;;5094528;28;20384;-71
2022/08/05 01:24:46;;;;;;;3.65;2.22;;;27.90;73.20;;;;;;5092693;28;20553;-71
2022/08/05 01:27:32;;;;;;;5.63;2.50;;;27.90;73.30;;;;;;5094065;28;20111;-71
2022/08/05 01:30:01;;;;;;;8.13;2.67;;;27.90;73.60;;;;;;5092447;28;20024;-71
2022/08/05 01:32:30;;;;;;;5.18;2.15;;;27.80;73.70;;;;;;5094075;28;20113;-70
2022/08/05 01:35:08;;;;;;;5.45;2.40;;;27.90;73.80;;;;;;5093825;28;20027;-71
2022/08/05 01:37:43;;;;;;;10.77;2.60;;;27.90;73.80;;;;;;5093801;28;20035;-71
2022/08/05 01:40:11;;;;;;;9.82;2.03;;;27.80;74.10;;;;;;5094653;28;20020;-71
2022/08/05 01:42:39;;;;;;;5.82;2.10;;;27.80;73.90;;;;;;5094609;28;20111;-71
2022/08/05 01:45:06;;;;;;;4.57;2.30;;;27.80;74.20;;;;;;5094180;28;20056;-70
2022/08/05 01:47:34;;;;;;;9.73;2.58;;;27.80;74.00;;;;;;5092112;28;20110;-70
2022/08/05 01:50:03;;;;;;;7.65;2.20;;;28.00;74.10;;;;;;5091747;28;20024;-71
2022/08/05 01:52:31;;;;;;;5.22;2.20;;;28.00;74.10;;;;;;5092139;28;20020;-71
2022/08/05 01:55:01;;;;;;;6.03;2.20;;;27.90;74.50;;;;;;5092170;28;20511;-71
2022/08/05 01:57:30;;;;;;;9.20;2.70;;;27.90;74.90;;;;;;5093232;28;20032;-71
2022/08/05 01:59:59;;;;;;;4.70;2.40;;;27.80;75.00;;;;;;5092117;28;20034;-71
2022/08/05 02:02:28;;;;;;;5.72;2.28;;;27.90;75.20;;;;;;5093562;28;20059;-72
2022/08/05 02:05:00;;;;;;;5.00;2.35;;;27.80;75.40;;;;;;5094019;28;20472;-72
2022/08/05 02:07:26;;;;;;;5.78;2.85;;;27.90;75.60;;;;;;5093519;28;20032;-72
2022/08/05 02:09:51;;;;;;;4.95;2.83;;;27.70;76.20;;;;;;5092093;28;20028;-72
2022/08/05 02:12:41;;;;;;;7.45;3.03;;;27.70;76.70;;;;;;5092672;28;20069;-71
2022/08/05 02:15:33;;;;;;;5.97;2.38;;;27.60;77.10;;;;;;5093630;28;20043;-71
2022/08/05 02:18:10;;;;;;;9.32;3.53;;;27.60;77.20;;;;;;5093642;28;20020;-71
2022/08/05 02:20:46;;;;;;;7.60;3.00;;;27.60;77.20;;;;;;5093891;28;20495;-71
2022/08/05 02:23:13;;;;;;;7.35;3.20;;;27.60;77.50;;;;;;5092362;28;20035;-71
2022/08/05 02:25:42;;;;;;;4.40;3.03;;;27.70;77.50;;;;;;5093651;28;20024;-72
2022/08/05 02:28:09;;;;;;;7.00;2.30;;;27.70;77.70;;;;;;5091740;28;20024;-71
2022/08/05 02:30:45;;;;;;;5.47;3.15;;;27.70;77.50;;;;;;5093454;28;20055;-70
2022/08/05 02:33:14;;;;;;;6.03;3.05;;;27.90;77.40;;;;;;5093310;28;20020;-71
2022/08/05 02:35:42;;;;;;;6.75;3.22;;;28.00;77.40;;;;;;5093456;28;20032;-70
2022/08/05 02:38:09;;;;;;;4.53;3.00;;;27.90;77.30;;;;;;5091987;28;20484;-71
2022/08/05 02:40:36;;;;;;;7.22;2.90;;;27.80;77.80;;;;;;5093036;28;20043;-71
2022/08/05 02:43:03;;;;;;;6.80;3.30;;;27.90;78.10;;;;;;5092055;28;20499;-71
2022/08/05 02:45:29;;;;;;;5.65;3.15;;;28.00;78.10;;;;;;5092930;28;20119;-72
2022/08/05 02:47:56;;;;;;;6.25;2.78;;;27.90;78.60;;;;;;5093683;28;20029;-72
2022/08/05 02:50:23;;;;;;;6.10;3.28;;;27.90;78.50;;;;;;5093678;28;20467;-72
2022/08/05 02:52:51;;;;;;;5.93;3.28;;;27.90;78.60;;;;;;5093468;28;20476;-73
2022/08/05 02:55:17;;;;;;;6.47;3.00;;;28.00;78.70;;;;;;5093840;28;20380;-71
2022/08/05 02:57:44;;;;;;;8.48;3.67;;;28.00;78.70;;;;;;5092437;28;20024;-71
2022/08/05 03:00:13;;;;;;;8.43;3.55;;;27.90;78.90;;;;;;5093411;28;20125;-72
2022/08/05 03:02:40;;;;;;;5.63;3.03;;;27.90;79.00;;;;;;5098887;28;20028;-72
2022/08/05 03:05:09;;;;;;;8.13;3.30;;;27.70;79.50;;;;;;5099150;28;20024;-72
2022/08/05 03:07:36;;;;;;;8.30;3.10;;;27.60;79.80;;;;;;5098765;28;20024;-72
2022/08/05 03:10:02;;;;;;;7.60;2.70;;;27.60;80.00;;;;;;5096783;28;20503;-72
2022/08/05 03:12:38;;;;;;;4.72;2.88;;;27.70;80.00;;;;;;5097146;28;20028;-72
2022/08/05 03:15:06;;;;;;;5.35;3.20;;;27.70;80.00;;;;;;5097665;28;20156;-72
2022/08/05 03:17:32;;;;;;;6.28;3.00;;;27.60;80.10;;;;;;5096695;28;20388;-72
2022/08/05 03:19:58;;;;;;;10.07;3.00;;;27.60;80.00;;;;;;5098845;28;20024;-72
2022/08/05 03:22:24;;;;;;;5.68;2.88;;;27.70;80.00;;;;;;5096455;28;20035;-72
2022/08/05 03:24:50;;;;;;;8.35;3.13;;;27.60;79.80;;;;;;5099216;28;20178;-71
2022/08/05 03:27:16;;;;;;;7.70;3.30;;;27.60;79.80;;;;;;5095007;28;20024;-71
2022/08/05 03:29:42;;;;;;;6.28;3.13;;;27.60;79.70;;;;;;5096227;28;20502;-71
2022/08/05 03:32:09;;;;;;;7.32;2.72;;;27.60;79.70;;;;;;5094845;28;20119;-71
2022/08/05 03:34:35;;;;;;;6.15;2.80;;;27.70;79.80;;;;;;5096210;28;20549;-71
2022/08/05 03:37:02;;;;;;;8.93;3.85;;;27.50;80.20;;;;;;5094888;28;20020;-71
2022/08/05 03:39:28;;;;;;;7.28;3.40;;;27.50;80.50;;;;;;5095999;28;20024;-71
2022/08/05 03:41:55;;;;;;;6.07;3.10;;;27.40;80.80;;;;;;5096064;28;20024;-71
2022/08/05 03:44:20;;;;;;;11.88;3.00;;;27.40;81.10;;;;;;5095027;28;20028;-71
2022/08/05 03:46:46;;;;;;;5.35;3.08;;;27.50;81.30;;;;;;5096010;28;20507;-71
2022/08/05 03:49:11;;;;;;;9.88;3.83;;;27.60;81.70;;;;;;5095978;28;20024;-71
2022/08/05 03:52:04;;;;;;;6.20;3.20;;;27.60;84.00;;;;;;5096245;28;20027;-70
2022/08/05 03:54:44;;;;;;;7.07;3.45;;;27.40;90.10;;;;;;5086135;28;20032;-71
2022/08/05 03:57:12;;;;;;;8.10;3.80;;;27.50;89.30;;;;;;5094328;28;20039;-71
2022/08/05 03:59:45;;;;;;;11.30;3.90;;;27.40;90.60;;;;;;5095598;28;20024;-71
2022/08/05 04:02:12;;;;;;;8.00;3.53;;;27.30;92.20;;;;;;5095601;28;20038;-71
2022/08/05 04:04:39;;;;;;;8.30;4.20;;;27.20;93.40;;;;;;5094040;28;20028;-71
2022/08/05 04:07:05;;;;;;;7.00;4.10;;;27.20;94.00;;;;;;5093932;28;20023;-71
2022/08/05 04:09:32;;;;;;;6.70;3.08;;;27.00;94.40;;;;;;5093814;28;20083;-71
2022/08/05 04:11:58;;;;;;;7.75;3.90;;;26.90;95.20;;;;;;5093719;28;20024;-71
2022/08/05 04:14:25;;;;;;;8.95;3.88;;;26.90;95.80;;;;;;5095224;28;20430;-71
2022/08/05 04:16:51;;;;;;;8.73;3.80;;;26.70;96.40;;;;;;5095203;28;20027;-71
2022/08/05 04:19:17;;;;;;;7.57;3.60;;;26.80;96.80;;;;;;5093884;28;20081;-71
2022/08/05 04:21:42;;;;;;;7.43;4.22;;;26.80;96.90;;;;;;5093822;28;20428;-71
2022/08/05 04:24:08;;;;;;;5.25;3.25;;;26.80;97.00;;;;;;5095504;28;20024;-71
2022/08/05 04:26:34;;;;;;;7.22;2.80;;;26.80;97.20;;;;;;5101291;28;20032;-72
2022/08/05 04:29:00;;;;;;;8.07;3.72;;;26.90;96.00;;;;;;5095578;28;20389;-72
2022/08/05 04:31:26;;;;;;;10.25;3.60;;;27.00;96.20;;;;;;5095537;28;20363;-72
2022/08/05 04:33:51;;;;;;;11.80;3.92;;;27.00;95.90;;;;;;5093905;28;20020;-71
2022/08/05 04:36:17;;;;;;;9.57;3.60;;;27.00;95.80;;;;;;5094986;28;20032;-71
2022/08/05 04:38:43;;;;;;;7.32;3.40;;;27.00;95.90;;;;;;5094099;28;20419;-71
2022/08/05 04:41:09;;;;;;;8.73;3.60;;;26.90;96.10;;;;;;5096432;28;20459;-71
2022/08/05 04:43:35;;;;;;;7.57;3.08;;;26.90;96.30;;;;;;5095520;28;20039;-71
2022/08/05 04:46:02;;;;;;;8.98;3.30;;;26.80;95.80;;;;;;5105397;28;20096;-71
2022/08/05 04:48:28;;;;;;;8.38;3.20;;;26.90;95.60;;;;;;5107553;28;20027;-71
2022/08/05 04:50:54;;;;;;;7.60;3.08;;;26.80;95.40;;;;;;5093995;28;20024;-72
2022/08/05 04:53:20;;;;;;;9.90;3.08;;;26.60;95.30;;;;;;5095299;28;20016;-71
2022/08/05 04:55:45;;;;;;;7.97;2.67;;;26.60;94.80;;;;;;5095200;28;20501;-72
2022/08/05 04:58:14;;;;;;;5.05;3.08;;;26.40;94.80;;;;;;5093399;28;20020;-70
2022/08/05 05:00:40;;;;;;;4.13;2.75;;;26.40;94.10;;;;;;5093148;28;20384;-70
2022/08/05 05:03:07;;;;;;;5.30;2.50;;;26.70;93.80;;;;;;5094370;28;20027;-68
2022/08/05 05:05:33;;;;;;;4.68;2.53;;;26.60;93.20;;;;;;5092826;28;20016;-73
2022/08/05 05:08:01;;;;;;;7.80;2.45;;;26.60;92.90;;;;;;5092824;28;20081;-73
2022/08/05 05:10:31;;;;;;;4.90;2.47;;;26.50;92.60;;;;;;5092756;28;20020;-74
2022/08/05 05:12:57;;;;;;;7.55;2.47;;;26.50;92.60;;;;;;5094165;28;20384;-74
2022/08/05 05:15:23;;;;;;;3.92;2.00;;;26.60;92.70;;;;;;5094243;28;20031;-73
2022/08/05 05:17:49;;;;;;;4.28;2.10;;;26.70;92.40;;;;;;5092627;28;20024;-74
2022/08/05 05:20:14;;;;;;;4.97;2.30;;;26.70;92.10;;;;;;5094143;28;20131;-73
2022/08/05 05:22:40;;;;;;;7.80;2.90;;;26.80;92.00;;;;;;5093508;28;20035;-71
2022/08/05 05:25:07;;;;;;;3.40;2.25;;;26.80;91.80;;;;;;5092573;28;20395;-72
2022/08/05 05:27:34;;;;;;;4.88;2.03;;;26.80;91.30;;;;;;5092035;28;20024;-71
2022/08/05 05:30:00;;;;;;;8.20;2.10;;;26.90;91.20;;;;;;5091629;28;20028;-71
2022/08/05 05:32:25;;;;;;;4.50;2.15;;;26.80;91.30;;;;;;5093386;28;20031;-74
2022/08/05 05:34:51;;;;;;;7.30;2.67;;;26.80;91.30;;;;;;5093434;28;20027;-74
2022/08/05 05:37:17;;;;;;;3.22;1.83;;;26.60;91.20;;;;;;5093119;28;20032;-73
2022/08/05 05:39:42;;;;;;;6.25;2.63;;;26.70;91.10;;;;;;5092881;28;20092;-74
2022/08/05 05:42:08;;;;;;;3.85;2.20;;;26.60;91.30;;;;;;5092957;28;20110;-73
2022/08/05 05:44:34;;;;;;;7.50;2.35;;;26.50;91.50;;;;;;5094433;28;20032;-74
2022/08/05 05:47:00;;;;;;;6.40;2.25;;;26.50;91.70;;;;;;5095055;28;20544;-74
2022/08/05 05:49:26;;;;;;;3.78;2.45;;;26.50;91.70;;;;;;5096342;28;20028;-74
2022/08/05 05:51:52;;;;;;;7.20;2.80;;;26.50;91.80;;;;;;5097722;28;20111;-73
2022/08/05 05:54:19;;;;;;;8.73;2.70;;;26.40;91.60;;;;;;5093354;28;20104;-74
2022/08/05 05:56:45;;;;;;;3.08;2.40;;;26.40;91.70;;;;;;5094108;28;20028;-73
2022/08/05 05:59:11;;;;;;;;;;;26.40;91.60;;;;;;5094138;28;20502;-73
2022/08/05 06:01:38;;;;;;;4.80;2.13;;;26.40;91.70;;;;;;5092455;28;19926;-74
2022/08/05 06:04:12;;;;;;;2.80;2.30;;;26.50;91.70;;;;;;5092235;28;20024;-73
2022/08/05 06:06:41;;;;;;;5.78;2.38;;;26.30;91.70;;;;;;5092609;28;20024;-74
2022/08/05 06:09:07;;;;;;;4.90;2.38;;;26.30;91.70;;;;;;5093111;28;20053;-74
2022/08/05 06:11:34;;;;;;;3.60;2.35;;;26.40;91.80;;;;;;5092327;28;20016;-73
2022/08/05 06:14:00;;;;;;;7.88;2.83;;;26.30;91.90;;;;;;5093354;28;20557;-73
2022/08/05 06:16:26;;;;;;;7.53;3.22;;;26.30;92.00;;;;;;5092447;28;20061;-73
2022/08/05 06:18:51;;;;;;;4.97;2.45;;;26.40;92.00;;;;;;5092454;28;20391;-73
2022/08/05 06:21:17;;;;;;;9.10;2.67;;;26.60;91.80;;;;;;5093728;28;20510;-72
2022/08/05 06:23:43;;;;;;;4.50;2.47;;;26.60;91.70;;;;;;5092427;28;20434;-72
2022/08/05 06:26:09;;;;;;;3.92;2.30;;;26.70;91.60;;;;;;5093305;28;20046;-73
2022/08/05 06:28:35;;;;;;;2.50;2.13;;;26.90;90.90;;;;;;5093984;28;20473;-76
2022/08/05 06:31:01;;;;;;;5.82;2.25;;;27.00;90.60;;;;;;5092430;28;20023;-76
2022/08/05 06:33:27;;;;;;;6.45;2.28;;;27.10;90.10;;;;;;5093688;28;20107;-76
2022/08/05 06:35:52;;;;;;;6.95;2.30;;;27.00;89.70;;;;;;5093047;28;20028;-75
2022/08/05 06:38:18;;;;;;;6.10;1.90;;;27.10;89.10;;;;;;5098038;28;20020;-76
2022/08/05 06:40:44;;;;;;;8.70;2.58;;;27.10;89.70;;;;;;5096146;28;20044;-75
2022/08/05 06:43:11;;;;;;;5.00;2.30;;;27.20;88.30;;;;;;5096687;28;20062;-76
2022/08/05 06:45:37;;;;;;;4.93;1.95;;;27.10;88.30;;;;;;5098257;28;20027;-75
2022/08/05 06:48:03;;;;;;;2.58;2.10;;;27.10;87.90;;;;;;5096667;28;20020;-75
2022/08/05 06:50:28;;;;;;;5.18;2.00;;;27.20;87.30;;;;;;5096219;28;20028;-75
2022/08/05 06:52:54;;;;;;;3.30;2.47;;;27.20;87.20;;;;;;5096378;28;20119;-75
2022/08/05 06:55:19;;;;;;;4.18;2.03;;;27.40;86.90;;;;;;5096112;28;20043;-73
2022/08/05 06:57:45;;;;;;;2.40;2.03;;;27.60;86.50;;;;;;5102718;28;20521;-78
2022/08/05 07:00:11;;;;;;;4.45;2.00;;;27.80;85.80;;;;;;5102239;28;20034;-79
2022/08/05 07:02:46;;;;;;;7.53;2.45;;;28.00;85.50;;;;;;5109672;28;20040;-78
2022/08/05 07:05:13;;;;;;;2.65;1.70;;;28.30;84.80;;;;;;5107587;28;20028;-78
2022/08/05 07:07:39;;;;;;;3.40;1.70;;;28.40;83.50;;;;;;5102024;28;20122;-77
2022/08/05 07:10:07;;;;;;;3.90;1.80;;;28.60;82.50;;;;;;5107720;28;20499;-78
2022/08/05 07:18:00;;;;;;;4.70;2.00;;;28.60;81.40;;;;;;5115464;28;20039;-78
2022/08/05 07:20:42;;;;;;;4.25;2.47;;;28.60;81.40;;;;;;5121304;28;20028;-76
2022/08/05 07:23:08;;;;;;;4.60;2.00;;;28.60;80.90;;;;;;5117004;28;20036;-78
2022/08/05 07:25:35;;;;;;;4.55;2.05;;;28.60;80.60;;;;;;5102232;28;20024;-78
2022/08/05 07:28:11;;;;;;;2.28;1.80;;;28.50;80.70;;;;;;5113466;28;20030;-78
2022/08/05 07:30:37;;;;;;;4.32;1.70;;;28.50;81.50;;;;;;5113532;28;20072;-78
2022/08/05 07:33:05;;;;;;;3.17;1.80;;;28.40;81.90;;;;;;5112203;28;20415;-78
2022/08/05 07:35:31;;;;;;;4.95;2.38;;;28.30;81.90;;;;;;5108675;28;20032;-77
2022/08/05 07:37:57;;;;;;;1.80;1.70;;;28.40;81.20;;;;;;5095775;28;20145;-77
2022/08/05 07:40:22;;;;;;;2.05;1.77;;;28.50;80.80;;;;;;5113298;28;20039;-78
2022/08/05 07:42:48;;;;;;;4.25;2.38;;;28.60;80.80;;;;;;5109988;28;20164;-78
2022/08/05 07:45:14;;;;;;;4.13;1.92;;;28.70;80.10;;;;;;5113439;28;20139;-78
2022/08/05 07:47:40;;;;;;;3.28;2.08;;;28.90;79.60;;;;;;5107282;28;20031;-78
2022/08/05 07:50:07;;;;;;;2.75;1.63;;;28.90;79.20;;;;;;5102024;28;20032;-77
2022/08/05 07:52:38;;;;;;;4.88;1.90;;;29.00;79.90;;;;;;5115066;28;20043;-76
2022/08/05 07:55:05;;;;;;;4.53;1.60;;;29.10;79.70;;;;;;5115842;28;20039;-77
2022/08/05 07:57:31;;;;;;;2.85;1.98;;;29.40;79.10;;;;;;5100780;28;20400;-76
2022/08/05 07:59:56;;;;;;;3.53;1.77;;;29.80;78.60;;;;;;5095016;28;20028;-70
2022/08/05 08:02:24;;;;;;;3.67;2.40;;;30.10;76.90;;;;;;5096085;28;20028;-70
2022/08/05 08:04:50;;;;;;;3.97;1.75;;;30.30;76.90;;;;;;5096165;28;20095;-70
2022/08/05 08:07:17;;;;;;;3.05;1.67;;;30.00;76.10;;;;;;5094176;28;20042;-70
2022/08/05 08:09:43;;;;;;;2.45;1.92;;;29.80;76.10;;;;;;5095343;28;20096;-71
2022/08/05 08:12:09;;;;;;;2.88;1.88;;;29.90;76.10;;;;;;5095413;28;20387;-71
2022/08/05 08:14:34;;;;;;;3.88;2.15;;;29.80;76.40;;;;;;5095477;28;20016;-71
2022/08/05 08:17:00;;;;;;;2.45;1.75;;;30.00;77.60;;;;;;5093856;28;20134;-73
2022/08/05 08:19:26;;;;;;;6.45;1.80;;;30.30;78.20;;;;;;5095250;28;20031;-72
2022/08/05 08:21:51;;;;;;;5.75;2.20;;;30.90;75.30;;;;;;5095218;28;20046;-72
2022/08/05 08:24:17;;;;;;;2.90;1.90;;;31.40;74.30;;;;;;5095247;28;20077;-71
2022/08/05 08:26:42;;;;;;;2.42;1.70;;;31.50;74.70;;;;;;5095087;28;20039;-71
2022/08/05 08:29:08;;;;;;;2.35;1.70;;;31.80;72.10;;;;;;5093595;28;20036;-71
2022/08/05 08:31:33;;;;;;;3.85;1.70;;;33.00;69.80;;;;;;5094504;28;20027;-72
2022/08/05 08:33:59;;;;;;;2.40;1.70;;;35.30;68.40;;;;;;5095358;28;20055;-72
2022/08/05 08:36:24;;;;;;;2.03;1.90;;;36.60;62.80;;;;;;5095251;28;20055;-73
2022/08/05 08:38:53;;;;;;;3.13;1.63;;;37.10;60.90;;;;;;5094859;28;20024;-73
2022/08/05 08:41:21;;;;;;;2.58;2.00;;;38.40;62.60;;;;;;5093410;28;20024;-71
2022/08/05 08:43:48;;;;;;;3.92;1.58;;;40.60;57.10;;;;;;5094759;28;20100;-71
2022/08/05 08:46:13;;;;;;;3.47;1.60;;;42.00;55.40;;;;;;5094167;28;20385;-71
2022/08/05 08:48:42;;;;;;;3.47;1.60;;;43.20;53.40;;;;;;5094754;28;20028;-71
2022/08/05 08:51:08;;;;;;;2.42;1.63;;;41.60;53.90;;;;;;5093605;28;20030;-71
2022/08/05 08:53:36;;;;;;;2.88;1.58;;;41.00;53.80;;;;;;5095716;28;20024;-71
2022/08/05 08:56:03;;;;;;;2.55;1.45;;;41.40;55.00;;;;;;5097777;28;20111;-72
2022/08/05 08:58:30;;;;;;;8.68;1.80;;;42.90;53.00;;;;;;5099231;28;20020;-72
2022/08/05 09:00:56;;;;;;;2.63;1.70;;;43.40;51.50;;;;;;5101197;28;20078;-71
2022/08/05 09:03:22;;;;;;;1.98;1.73;;;44.40;50.60;;;;;;5099312;28;20453;-70
2022/08/05 09:05:48;;;;;;;1.60;1.50;;;43.70;50.30;;;;;;5098422;28;20031;-70
2022/08/05 09:08:13;;;;;;;1.92;1.40;;;42.90;50.90;;;;;;5098618;28;20020;-71
2022/08/05 09:10:43;;;;;;;3.00;1.77;;;43.40;50.80;;;;;;5098466;28;20027;-70
2022/08/05 09:13:12;;;;;;;2.13;1.30;;;43.60;49.90;;;;;;5099270;28;20026;-71
2022/08/05 09:15:38;;;;;;;3.38;1.70;;;44.00;49.40;;;;;;5102104;28;20012;-71
2022/08/05 09:18:08;;;;;;;2.10;1.67;;;45.00;49.70;;;;;;5094062;28;20020;-71
2022/08/05 09:20:34;;;;;;;4.63;1.63;;;45.70;48.40;;;;;;5093293;28;20123;-71
2022/08/05 09:23:11;;;;;;;2.75;1.60;;;45.60;48.10;;;;;;5094492;28;20124;-71
2022/08/05 09:25:39;;;;;;;2.30;1.50;;;46.40;47.30;;;;;;5094204;28;20031;-70
2022/08/05 09:28:23;;;;;;;2.10;1.70;;;46.20;47.50;;;;;;5094427;28;20429;-72
2022/08/05 09:31:05;;;;;;;2.08;1.55;;;46.80;47.00;;;;;;5094372;28;20030;-72
2022/08/05 09:33:45;;;;;;;2.50;1.23;;;46.70;46.50;;;;;;5094441;28;20020;-71
2022/08/05 09:36:11;;;;;;;2.55;1.38;;;47.10;46.10;;;;;;5094674;28;20103;-71
2022/08/05 09:38:37;;;;;;;1.55;1.30;;;46.10;46.10;;;;;;5093041;28;20055;-71
2022/08/05 09:41:04;;;;;;;1.30;1.20;;;46.30;46.40;;;;;;5100690;28;20075;-70
2022/08/05 09:43:36;;;;;;;4.20;1.60;;;46.10;46.20;;;;;;5099351;28;20031;-72
2022/08/05 09:46:05;;;;;;;2.83;1.40;;;46.10;46.40;;;;;;5092436;28;20071;-71
2022/08/05 09:48:32;;;;;;;3.92;1.48;;;45.80;46.40;;;;;;5094031;28;20032;-71
2022/08/05 09:51:07;;;;;;;2.22;1.33;;;45.50;46.30;;;;;;5094199;28;20024;-71
2022/08/05 09:54:07;;;;;;;1.60;1.50;;;45.40;46.30;;;;;;5093911;28;20063;-71
2022/08/05 09:56:36;;;;;;;3.35;1.83;;;44.80;46.60;;;;;;5031105;28;20439;-71
2022/08/05 09:59:06;;;;;;;1.83;1.23;;;44.10;46.90;;;;;;5031616;28;20037;-71
2022/08/05 10:01:35;;;;;;;3.33;1.30;;;44.50;47.10;;;;;;5031586;28;20483;-70
2022/08/05 10:04:04;;;;;;;1.77;1.35;;;45.40;46.40;;;;;;5014914;28;20033;-70
2022/08/05 10:06:31;;;;;;;3.08;1.50;;;45.20;46.90;;;;;;5031436;28;20383;-70
2022/08/05 10:09:10;;;;;;;2.35;1.85;;;45.00;47.30;;;;;;5031504;28;20116;-70
2022/08/05 10:11:36;;;;;;;3.20;1.48;;;45.20;47.20;;;;;;5031465;28;20029;-70
2022/08/05 10:14:38;;;;;;;3.03;1.60;;;45.20;47.80;;;;;;5031032;28;20029;-70
2022/08/05 10:17:14;;;;;;;3.15;1.60;;;45.80;47.20;;;;;;5014997;28;20021;-70
2022/08/05 10:19:40;;;;;;;1.58;1.40;;;45.40;46.60;;;;;;5031100;28;20188;-70
2022/08/05 10:22:09;;;;;;;3.30;1.52;;;45.40;47.00;;;;;;5031027;28;20174;-70
2022/08/05 10:24:36;;;;;;;2.10;1.30;;;45.50;46.80;;;;;;5030654;28;20033;-70
2022/08/05 10:27:01;;;;;;;2.50;1.58;;;45.30;46.70;;;;;;5030618;28;20041;-71
2022/08/05 10:29:31;;;;;;;1.58;1.40;;;45.40;48.00;;;;;;5030487;28;20033;-70
2022/08/05 10:31:56;;;;;;;3.45;1.75;;;45.60;46.70;;;;;;5046507;28;20055;-69
2022/08/05 10:34:22;;;;;;;2.13;1.50;;;45.40;46.80;;;;;;5091736;28;20476;-70
2022/08/05 10:36:48;;;;;;;2.40;1.65;;;45.40;47.30;;;;;;5093132;28;20414;-71
2022/08/05 10:39:18;;;;;;;3.15;1.73;;;45.20;47.50;;;;;;5092782;28;20093;-71
2022/08/05 10:41:57;;;;;;;3.55;1.45;;;44.80;46.90;;;;;;5093482;28;20028;-70
2022/08/05 10:44:23;;;;;;;3.28;1.67;;;44.80;46.80;;;;;;5093212;28;20020;-70
2022/08/05 10:46:53;;;;;;;1.92;1.40;;;44.60;46.70;;;;;;5091488;28;20070;-70
2022/08/05 10:49:20;;;;;;;4.68;1.20;;;44.40;46.90;;;;;;5092806;28;20024;-70
2022/08/05 10:51:48;;;;;;;3.20;2.50;;;44.40;47.00;;;;;;5092774;28;20073;-70
2022/08/05 10:54:15;;;;;;;3.65;2.08;;;43.90;46.80;;;;;;5091900;28;20047;-70
2022/08/05 10:56:54;;;;;;;2.47;1.70;;;42.80;47.50;;;;;;5093300;28;20039;-71
2022/08/05 10:59:30;;;;;;;3.05;1.73;;;42.40;48.80;;;;;;5094053;28;20024;-71
2022/08/05 11:02:11;;;;;;;3.85;2.47;;;41.70;49.00;;;;;;5092276;28;20020;-70
2022/08/05 11:04:44;;;;;;;1.75;1.40;;;41.30;49.80;;;;;;5091900;28;20028;-71
2022/08/05 11:07:14;;;;;;;2.13;1.50;;;42.10;48.90;;;;;;5091299;28;20398;-70
2022/08/05 11:09:43;;;;;;;2.97;1.70;;;42.10;48.80;;;;;;5092474;28;20377;-70
2022/08/05 11:12:40;;;;;;;3.13;1.70;;;42.60;48.70;;;;;;5091437;28;20035;-70
2022/08/05 11:15:09;;;;;;;3.35;1.80;;;42.40;48.60;;;;;;5092536;28;20081;-71
2022/08/05 11:17:37;;;;;;;2.00;1.60;;;41.20;49.50;;;;;;5092478;28;20069;-71
2022/08/05 11:20:08;;;;;;;2.67;1.60;;;39.60;50.60;;;;;;5092635;28;20046;-71
2022/08/05 11:22:43;;;;;;;1.88;1.30;;;38.30;52.00;;;;;;5094522;28;20074;-71
2022/08/05 11:25:30;;;;;;;2.63;1.80;;;37.40;53.00;;;;;;5096613;28;20020;-71
2022/08/05 11:28:16;;;;;;;1.75;1.50;;;36.60;53.70;;;;;;5096655;28;20020;-71
2022/08/05 11:30:54;;;;;;;2.40;1.63;;;36.40;54.50;;;;;;5108276;28;20070;-72
2022/08/05 11:33:37;;;;;;;1.85;1.65;;;36.20;55.20;;;;;;5110169;28;20059;-71
2022/08/05 11:36:10;;;;;;;2.97;1.90;;;36.00;55.50;;;;;;5111847;28;20035;-71
2022/08/05 11:38:42;;;;;;;3.65;1.60;;;35.60;56.10;;;;;;5108482;28;20173;-71
2022/08/05 11:41:10;;;;;;;2.33;1.60;;;35.60;56.30;;;;;;5105778;28;20024;-71
2022/08/05 11:43:37;;;;;;;4.13;1.88;;;35.30;57.00;;;;;;5106611;28;20103;-70
2022/08/05 11:46:03;;;;;;;1.90;1.50;;;35.20;56.50;;;;;;5103009;28;20028;-71
2022/08/05 11:48:28;;;;;;;1.65;1.55;;;34.70;56.60;;;;;;5099673;28;20028;-71
2022/08/05 11:50:54;;;;;;;3.38;1.90;;;34.50;58.00;;;;;;5105594;28;20028;-70
2022/08/05 11:53:20;;;;;;;3.50;1.63;;;34.50;58.20;;;;;;5104565;28;20024;-73
2022/08/05 11:55:58;;;;;;;2.28;1.95;;;34.20;58.60;;;;;;5110074;28;20069;-71
2022/08/05 11:58:26;;;;;;;3.15;1.48;;;34.10;59.20;;;;;;5109303;28;20032;-70
2022/08/05 12:01:01;;;;;;;4.18;1.60;;;34.00;59.40;;;;;;5107183;28;20020;-71
2022/08/05 12:03:26;;;;;;;2.22;1.60;;;34.00;59.10;;;;;;5108360;28;20083;-70
2022/08/05 12:06:01;;;;;;;2.75;1.73;;;34.00;58.80;;;;;;5110503;28;20016;-70
2022/08/05 12:08:27;;;;;;;4.27;2.00;;;34.20;58.70;;;;;;5105894;28;20353;-70
2022/08/05 12:10:57;;;;;;;5.10;2.25;;;34.50;58.00;;;;;;5095087;28;20380;-70
2022/08/05 12:13:22;;;;;;;3.03;2.00;;;34.30;58.00;;;;;;5101798;28;20032;-72
2022/08/05 12:15:48;;;;;;;2.03;1.75;;;34.50;58.00;;;;;;5095973;28;20459;-72
2022/08/05 12:18:18;;;;;;;2.58;1.90;;;34.30;58.00;;;;;;5097628;28;20060;-72
2022/08/05 12:20:43;;;;;;;4.50;1.92;;;34.20;58.30;;;;;;5097319;28;20081;-72
2022/08/05 12:23:12;;;;;;;1.90;1.60;;;34.10;58.90;;;;;;5095419;28;20119;-71
2022/08/05 12:25:52;;;;;;;1.90;1.80;;;33.90;58.40;;;;;;5094783;28;20031;-72
2022/08/05 12:28:35;;;;;;;3.45;1.85;;;33.70;59.00;;;;;;5094861;28;20031;-71
2022/08/05 12:31:01;;;;;;;4.85;2.03;;;33.70;59.30;;;;;;5094876;28;20028;-71
2022/08/05 12:33:27;;;;;;;3.30;2.10;;;33.70;59.30;;;;;;5094900;28;20074;-72
2022/08/05 12:35:54;;;;;;;4.07;1.95;;;33.70;59.30;;;;;;5095180;28;20028;-72
2022/08/05 12:38:21;;;;;;;3.58;2.20;;;33.80;59.70;;;;;;5095163;28;20047;-71
2022/08/05 12:40:47;;;;;;;2.83;2.28;;;33.70;59.80;;;;;;5094981;28;20026;-71
2022/08/05 12:43:13;;;;;;;3.92;1.90;;;33.70;59.70;;;;;;5093409;28;20020;-72
2022/08/05 12:45:50;;;;;;;2.15;1.70;;;33.70;59.80;;;;;;5095268;28;20419;-72
2022/08/05 12:48:15;;;;;;;3.10;1.80;;;34.00;59.60;;;;;;5095604;28;20024;-72
2022/08/05 12:50:41;;;;;;;2.47;1.90;;;34.10;59.60;;;;;;5094542;28;20031;-72
2022/08/05 12:53:06;;;;;;;4.00;2.17;;;34.20;59.20;;;;;;5094991;28;20052;-72
2022/08/05 12:55:33;;;;;;;2.58;1.70;;;34.20;59.10;;;;;;5094500;28;20392;-72
2022/08/05 12:57:59;;;;;;;5.53;1.80;;;34.20;59.30;;;;;;5094293;22;20131;-67
2022/08/05 13:00:26;;;;;;;1.83;1.65;;;34.00;59.70;;;;;;5076200;28;20056;-67